Pentraeth, United Kingdom
Current Conditions -  °F | °C
As of 12:50 AM on Thursday 23 Oct 2014 (Local Time) from EGOV Reporting Station
Overcast Overcast  
Wind Chill: 55°   Ceiling: 3300
Heat Index: 55°   Visibility: 6mi
Dew Point: 46°   Wind: 20mph
Humidity: 72%   Direction: 230°SW
Pressure: 30.06"   Gusts: NA
Location:  53.27°N, 4.24°W
Report Text: EGOV 222350Z 23017KT 9999 OVC033 13/08 Q1018 BLU
Loading
Personal Weather Stations






























Interactive Weather Map
Tropical Storm Tracking
New forecast layout! Learn more

10-Day Weather Forecast

Advertisements
Track Severe Weather on mobile